Time;durP1;ratioP1;P1;durP2;ratioP2;P2;SDS_P1;SDS_P2;PMS_P1;PMS_P2;Temp;Humidity;BMP_temperature;BMP_pressure;BME280_temperature;BME280_humidity;BME280_pressure;Samples;Min_cycle;Max_cycle;Signal;HPM_P1;HPM_P2
2021/10/31 00:02:12;;;;;;;9.43;5.35;;;16.30;97.90;;;;;;5126129;27;20031;-60
2021/10/31 00:04:40;;;;;;;12.93;6.30;;;16.30;97.80;;;;;;5124273;27;20042;-60
2021/10/31 00:07:07;;;;;;;9.07;5.82;;;16.20;97.80;;;;;;5133233;27;20069;-60
2021/10/31 00:09:35;;;;;;;8.60;5.72;;;16.20;97.80;;;;;;5117715;27;20100;-60
2021/10/31 00:12:04;;;;;;;10.43;6.80;;;16.20;97.80;;;;;;5115216;27;20077;-60
2021/10/31 00:14:32;;;;;;;8.38;5.10;;;16.20;97.80;;;;;;5105117;28;20032;-59
2021/10/31 00:16:59;;;;;;;14.25;7.20;;;16.10;97.90;;;;;;5122566;27;20047;-60
2021/10/31 00:19:28;;;;;;;7.80;5.00;;;16.10;98.00;;;;;;5124375;27;20512;-60
2021/10/31 00:21:57;;;;;;;9.38;5.85;;;16.00;98.10;;;;;;5099133;27;20047;-60
2021/10/31 00:24:25;;;;;;;9.75;6.18;;;16.00;98.20;;;;;;5122064;27;20043;-59
2021/10/31 00:26:52;;;;;;;10.15;6.07;;;15.90;98.40;;;;;;5131849;27;20557;-60
2021/10/31 00:29:20;;;;;;;7.13;5.40;;;15.80;98.50;;;;;;5122790;27;20114;-60
2021/10/31 00:31:47;;;;;;;8.45;5.40;;;15.80;98.60;;;;;;5121077;27;20131;-60
2021/10/31 00:34:15;;;;;;;9.50;5.63;;;15.70;98.60;;;;;;5128911;27;20390;-60
2021/10/31 00:36:43;;;;;;;9.82;6.47;;;15.60;98.70;;;;;;5117091;27;20139;-60
2021/10/31 00:39:10;;;;;;;8.10;5.93;;;15.60;98.80;;;;;;5125083;27;20036;-60
2021/10/31 00:41:38;;;;;;;9.60;6.57;;;15.50;98.80;;;;;;5123023;27;20481;-60
2021/10/31 00:44:05;;;;;;;11.52;6.15;;;15.50;98.90;;;;;;5115966;28;20071;-60
2021/10/31 00:46:33;;;;;;;8.15;6.10;;;15.50;99.20;;;;;;5128459;27;20114;-60
2021/10/31 00:49:01;;;;;;;9.88;5.88;;;15.50;99.00;;;;;;5122274;27;20046;-60
2021/10/31 00:51:28;;;;;;;7.45;5.63;;;15.40;99.00;;;;;;5124947;27;20370;-60
2021/10/31 00:53:58;;;;;;;10.00;5.75;;;15.30;99.10;;;;;;5117048;27;20081;-60
2021/10/31 00:56:26;;;;;;;9.18;6.55;;;15.40;99.10;;;;;;5106563;27;20036;-60
2021/10/31 00:58:53;;;;;;;7.38;6.22;;;15.30;99.00;;;;;;5125719;27;20039;-60
2021/10/31 01:01:21;;;;;;;10.00;6.93;;;15.30;99.00;;;;;;5101775;27;20089;-60
2021/10/31 01:03:50;;;;;;;7.55;5.93;;;15.20;99.00;;;;;;5125305;27;20119;-60
2021/10/31 01:06:52;;;;;;;8.43;6.00;;;15.20;99.00;;;;;;5122762;27;20085;-60
2021/10/31 01:09:50;;;;;;;11.73;5.70;;;15.30;98.80;;;;;;5121713;27;20492;-59
2021/10/31 01:12:59;;;;;;;9.38;6.07;;;15.20;98.70;;;;;;5112980;27;20119;-60
2021/10/31 01:15:42;;;;;;;9.68;6.05;;;15.20;99.00;;;;;;5116695;27;20040;-60
2021/10/31 01:18:38;;;;;;;10.90;6.93;;;15.20;99.10;;;;;;5118142;27;20047;-60
2021/10/31 01:21:32;;;;;;;8.65;6.00;;;15.10;99.20;;;;;;5102687;27;20093;-60
2021/10/31 01:24:09;;;;;;;9.73;6.63;;;15.00;99.20;;;;;;5114780;27;20043;-60
2021/10/31 01:26:51;;;;;;;;;;;14.80;99.30;;;;;;5118408;27;20042;-60
2021/10/31 01:29:41;;;;;;;13.35;8.02;;;14.70;99.80;;;;;;5122392;27;19959;-60
2021/10/31 01:32:33;;;;;;;11.82;8.15;;;14.60;99.90;;;;;;5121477;27;20039;-59
2021/10/31 01:35:22;;;;;;;13.15;9.57;;;14.50;99.90;;;;;;5086517;27;20074;-60
2021/10/31 01:38:19;;;;;;;15.38;9.55;;;14.40;99.90;;;;;;5115348;28;20118;-59
2021/10/31 01:40:56;;;;;;;20.90;9.90;;;14.30;99.90;;;;;;5114053;28;20048;-59
2021/10/31 01:43:44;;;;;;;11.95;8.23;;;14.30;99.90;;;;;;5113266;28;20035;-59
2021/10/31 01:46:35;;;;;;;13.13;9.57;;;14.30;99.90;;;;;;5080204;28;20086;-59
2021/10/31 01:49:36;;;;;;;15.52;9.43;;;14.10;99.90;;;;;;5115209;28;20047;-60
2021/10/31 01:52:11;;;;;;;18.85;8.77;;;14.00;99.90;;;;;;5115209;28;20100;-59
2021/10/31 01:54:49;;;;;;;14.15;8.18;;;14.00;99.90;;;;;;5115264;28;20035;-60
2021/10/31 01:57:21;;;;;;;10.93;7.53;;;14.10;99.90;;;;;;5080103;28;20089;-60
2021/10/31 02:00:01;;;;;;;10.32;7.18;;;14.20;99.80;;;;;;5115221;28;20066;-60
2021/10/31 02:02:40;;;;;;;10.88;8.20;;;14.40;98.70;;;;;;5113850;28;20043;-60
2021/10/31 02:05:30;;;;;;;13.75;7.47;;;14.60;97.20;;;;;;5113788;28;20040;-60
2021/10/31 02:08:03;;;;;;;12.50;6.95;;;14.60;96.80;;;;;;5115115;28;20390;-60
2021/10/31 02:10:32;;;;;;;8.88;6.03;;;14.60;96.40;;;;;;5114946;28;20067;-60
2021/10/31 02:13:02;;;;;;;8.13;6.72;;;14.60;95.80;;;;;;5115155;28;20043;-60
2021/10/31 02:15:32;;;;;;;10.20;7.00;;;14.70;95.30;;;;;;5115132;28;20067;-60
2021/10/31 02:18:01;;;;;;;11.48;6.63;;;14.80;95.10;;;;;;5113726;28;20039;-60
2021/10/31 02:20:30;;;;;;;8.68;6.63;;;14.80;94.90;;;;;;5097283;28;20490;-60
2021/10/31 02:23:01;;;;;;;9.15;6.07;;;14.80;94.50;;;;;;5115279;28;20046;-60
2021/10/31 02:25:30;;;;;;;10.05;5.72;;;14.90;94.30;;;;;;5114693;28;20493;-60
2021/10/31 02:27:58;;;;;;;10.32;6.15;;;15.00;94.00;;;;;;5114640;28;20405;-60
2021/10/31 02:30:25;;;;;;;6.88;5.45;;;15.10;93.90;;;;;;5096658;28;20424;-60
2021/10/31 02:32:53;;;;;;;10.77;6.15;;;15.20;94.30;;;;;;5113504;28;20031;-60
2021/10/31 02:35:22;;;;;;;7.05;5.53;;;15.20;94.50;;;;;;5114603;28;20039;-60
2021/10/31 02:37:50;;;;;;;9.50;5.65;;;15.30;94.70;;;;;;5096891;28;20040;-60
2021/10/31 02:40:21;;;;;;;10.40;6.88;;;15.40;94.70;;;;;;5113288;28;20056;-60
2021/10/31 02:42:50;;;;;;;13.68;6.82;;;15.40;94.70;;;;;;5113429;28;20409;-60
2021/10/31 02:45:18;;;;;;;10.60;6.05;;;15.40;94.80;;;;;;5113477;28;20052;-60
2021/10/31 02:47:48;;;;;;;9.95;6.85;;;15.50;95.20;;;;;;5114587;28;20059;-60
2021/10/31 02:50:19;;;;;;;13.65;7.47;;;15.50;95.60;;;;;;5114665;28;20036;-60
2021/10/31 02:52:57;;;;;;;10.32;6.88;;;15.50;95.80;;;;;;5113269;28;20044;-60
2021/10/31 02:56:22;;;;;;;9.52;6.32;;;15.40;96.00;;;;;;5113389;28;20043;-60
2021/10/31 02:59:14;;;;;;;9.93;6.47;;;15.40;96.20;;;;;;5051696;28;20086;-60
2021/10/31 03:01:42;;;;;;;10.13;6.10;;;15.40;96.20;;;;;;5051735;28;20147;-60
2021/10/31 03:04:10;;;;;;;7.72;6.28;;;15.40;96.20;;;;;;5085538;28;20466;-60
2021/10/31 03:06:39;;;;;;;10.98;6.18;;;15.30;96.30;;;;;;5114102;28;20046;-60
2021/10/31 03:09:06;;;;;;;9.68;7.20;;;15.30;96.30;;;;;;5114476;28;20385;-60
2021/10/31 03:11:34;;;;;;;8.20;6.10;;;15.30;96.40;;;;;;5114214;28;20043;-60
2021/10/31 03:14:02;;;;;;;11.80;6.00;;;15.30;96.30;;;;;;5095971;28;20151;-59
2021/10/31 03:16:29;;;;;;;12.98;7.55;;;15.30;96.40;;;;;;5114086;28;20089;-60
2021/10/31 03:18:57;;;;;;;7.78;5.85;;;15.30;96.50;;;;;;5113872;28;20044;-60
2021/10/31 03:21:24;;;;;;;9.45;5.97;;;15.30;96.50;;;;;;5114010;28;20118;-60
2021/10/31 03:23:52;;;;;;;8.48;5.72;;;15.30;96.60;;;;;;5112880;28;20163;-60
2021/10/31 03:26:19;;;;;;;8.27;5.68;;;15.30;96.50;;;;;;5114069;28;20477;-59
2021/10/31 03:28:47;;;;;;;10.00;6.22;;;15.20;96.40;;;;;;5114092;28;20052;-59
2021/10/31 03:31:14;;;;;;;8.50;6.05;;;15.20;96.30;;;;;;5095459;28;20048;-59
2021/10/31 03:33:42;;;;;;;11.48;6.45;;;15.20;96.30;;;;;;5113843;28;20077;-59
2021/10/31 03:36:09;;;;;;;10.52;6.10;;;15.20;96.20;;;;;;5112465;28;20078;-60
2021/10/31 03:38:37;;;;;;;8.98;6.03;;;15.20;96.10;;;;;;5115366;28;20036;-60
2021/10/31 03:41:04;;;;;;;9.63;5.85;;;15.20;96.20;;;;;;5116663;28;20059;-59
2021/10/31 03:43:32;;;;;;;8.40;5.00;;;15.20;96.20;;;;;;5117989;27;20089;-60
2021/10/31 03:46:00;;;;;;;9.68;6.47;;;15.10;96.20;;;;;;5117984;28;20450;-60
2021/10/31 03:48:27;;;;;;;8.27;5.50;;;15.10;96.30;;;;;;5118053;28;20445;-60
2021/10/31 03:50:55;;;;;;;9.95;5.72;;;15.10;96.30;;;;;;5117867;28;20042;-60
2021/10/31 03:53:22;;;;;;;10.80;6.32;;;15.10;96.30;;;;;;5116610;28;20039;-60
2021/10/31 03:55:50;;;;;;;8.65;6.30;;;15.20;96.30;;;;;;5117606;27;20058;-60
2021/10/31 03:58:18;;;;;;;10.32;6.95;;;15.10;96.20;;;;;;5115800;28;20362;-60
2021/10/31 04:00:45;;;;;;;10.15;6.38;;;15.20;96.40;;;;;;5117607;28;20047;-60
2021/10/31 04:03:13;;;;;;;10.68;6.15;;;15.20;96.50;;;;;;5117678;27;20040;-60
2021/10/31 04:05:40;;;;;;;9.75;6.00;;;15.10;96.60;;;;;;5116703;28;20083;-60
2021/10/31 04:08:08;;;;;;;12.07;7.20;;;15.10;96.50;;;;;;5117712;28;20067;-60
2021/10/31 04:10:36;;;;;;;9.35;6.25;;;15.10;96.60;;;;;;5117395;28;20130;-60
2021/10/31 04:13:03;;;;;;;8.57;6.57;;;15.10;96.30;;;;;;5117608;28;20382;-60
2021/10/31 04:15:31;;;;;;;10.20;6.93;;;15.10;96.30;;;;;;5116530;28;20043;-60
2021/10/31 04:17:58;;;;;;;10.02;6.70;;;15.10;96.40;;;;;;5117469;28;20092;-60
2021/10/31 04:20:26;;;;;;;8.43;6.38;;;15.10;96.50;;;;;;5117269;28;20035;-60
2021/10/31 04:22:53;;;;;;;10.98;6.65;;;15.10;96.40;;;;;;5099191;28;20036;-60
2021/10/31 04:25:21;;;;;;;10.23;5.45;;;15.10;96.20;;;;;;5117136;28;20042;-60
2021/10/31 04:27:48;;;;;;;7.18;5.63;;;15.10;95.90;;;;;;5117029;28;20096;-60
2021/10/31 04:30:16;;;;;;;8.60;5.72;;;15.10;95.40;;;;;;5116553;28;20051;-60
2021/10/31 04:32:43;;;;;;;9.07;5.78;;;15.10;95.30;;;;;;5115970;28;20066;-60
2021/10/31 04:35:11;;;;;;;7.85;5.65;;;15.00;95.20;;;;;;5117172;28;20069;-60
2021/10/31 04:37:41;;;;;;;7.53;4.93;;;15.00;95.10;;;;;;5116052;28;20485;-60
2021/10/31 04:40:12;;;;;;;10.43;5.35;;;15.00;94.70;;;;;;5115690;28;20048;-60
2021/10/31 04:42:40;;;;;;;8.65;5.53;;;15.00;94.80;;;;;;5116922;28;20486;-60
2021/10/31 04:45:08;;;;;;;7.85;5.13;;;15.00;94.70;;;;;;5115709;28;20122;-60
2021/10/31 04:47:36;;;;;;;6.13;4.40;;;15.00;94.80;;;;;;5098362;28;20142;-60
2021/10/31 04:50:04;;;;;;;7.60;4.88;;;15.00;94.80;;;;;;5116460;28;20040;-60
2021/10/31 04:52:42;;;;;;;7.65;4.88;;;15.00;94.50;;;;;;5115374;28;20126;-60
2021/10/31 04:55:12;;;;;;;6.75;5.13;;;15.00;94.50;;;;;;5116726;28;20388;-60
2021/10/31 04:57:39;;;;;;;6.57;4.40;;;15.00;94.50;;;;;;5116577;28;20135;-60
2021/10/31 05:00:08;;;;;;;7.55;4.75;;;15.00;94.60;;;;;;5116414;28;20052;-60
2021/10/31 05:02:35;;;;;;;7.50;5.57;;;15.00;94.60;;;;;;5116609;28;20040;-60
2021/10/31 05:05:03;;;;;;;7.68;4.32;;;15.10;94.80;;;;;;5115027;28;20460;-60
2021/10/31 05:07:31;;;;;;;8.77;4.80;;;15.00;94.70;;;;;;5115362;28;20043;-60
2021/10/31 05:09:59;;;;;;;7.72;4.55;;;15.00;94.50;;;;;;5116297;28;20104;-60
2021/10/31 05:12:27;;;;;;;6.80;5.18;;;15.00;94.70;;;;;;5116248;28;20047;-60
2021/10/31 05:14:54;;;;;;;8.07;5.35;;;15.00;94.70;;;;;;5115132;28;20482;-60
2021/10/31 05:17:22;;;;;;;5.78;4.43;;;15.00;94.80;;;;;;5116315;28;20075;-60
2021/10/31 05:19:50;;;;;;;7.28;5.00;;;15.00;94.60;;;;;;5115318;28;20435;-60
2021/10/31 05:22:17;;;;;;;6.30;4.55;;;15.00;94.70;;;;;;5098086;28;20043;-60
2021/10/31 05:24:45;;;;;;;6.25;4.97;;;15.00;94.90;;;;;;5115144;28;20434;-60
2021/10/31 05:27:12;;;;;;;8.80;5.63;;;15.10;94.90;;;;;;5114806;28;20063;-60
2021/10/31 05:29:40;;;;;;;8.65;4.72;;;15.10;94.90;;;;;;5115910;28;20036;-60
2021/10/31 05:32:08;;;;;;;8.80;5.28;;;15.10;94.90;;;;;;5115695;28;20036;-59
2021/10/31 05:34:35;;;;;;;9.25;4.80;;;15.20;95.00;;;;;;5115927;28;20035;-60
2021/10/31 05:37:03;;;;;;;9.60;5.28;;;15.30;95.10;;;;;;5115887;28;20055;-60
2021/10/31 05:39:31;;;;;;;13.07;6.32;;;15.40;94.90;;;;;;5097955;28;20397;-60
2021/10/31 05:41:59;;;;;;;7.35;4.50;;;15.60;94.90;;;;;;5115677;28;20050;-60
2021/10/31 05:44:26;;;;;;;7.43;5.00;;;15.80;94.70;;;;;;5116028;28;20118;-60
2021/10/31 05:46:54;;;;;;;6.93;4.55;;;16.00;94.30;;;;;;5115565;28;20118;-60
2021/10/31 05:49:22;;;;;;;8.18;4.80;;;16.20;93.80;;;;;;5115396;28;20393;-60
2021/10/31 05:51:50;;;;;;;6.88;4.78;;;16.50;93.30;;;;;;5115644;27;20036;-60
2021/10/31 05:54:17;;;;;;;8.18;4.78;;;16.70;92.90;;;;;;5115397;27;20420;-60
2021/10/31 05:56:45;;;;;;;7.78;4.88;;;17.00;92.70;;;;;;5114477;28;20063;-60
2021/10/31 05:59:13;;;;;;;7.60;4.05;;;17.20;92.70;;;;;;5097278;28;20036;-60
2021/10/31 06:01:40;;;;;;;7.53;4.78;;;17.20;91.80;;;;;;5114473;28;20052;-60
2021/10/31 06:04:08;;;;;;;11.32;4.28;;;17.10;91.10;;;;;;5114412;28;20036;-60
2021/10/31 06:06:36;;;;;;;5.07;4.32;;;17.10;91.50;;;;;;5115090;28;20039;-60
2021/10/31 06:09:04;;;;;;;6.97;4.45;;;17.30;92.00;;;;;;5114148;28;20549;-60
2021/10/31 06:11:33;;;;;;;6.30;3.95;;;17.70;92.30;;;;;;5115115;28;20043;-60
2021/10/31 06:14:01;;;;;;;6.47;4.30;;;18.40;92.00;;;;;;5115233;27;20071;-60
2021/10/31 06:16:29;;;;;;;7.75;3.92;;;19.10;91.30;;;;;;5115210;28;20071;-60
2021/10/31 06:18:56;;;;;;;7.57;5.82;;;19.80;90.70;;;;;;5097250;28;20095;-60
2021/10/31 06:21:24;;;;;;;7.47;4.82;;;20.50;90.10;;;;;;5114904;28;20040;-60
2021/10/31 06:23:52;;;;;;;7.10;4.85;;;21.10;89.30;;;;;;5115086;28;20044;-60
2021/10/31 06:26:19;;;;;;;7.78;4.45;;;21.50;88.40;;;;;;5096700;28;20097;-60
2021/10/31 06:28:47;;;;;;;7.95;4.70;;;22.00;87.60;;;;;;5113670;28;20046;-60
2021/10/31 06:31:16;;;;;;;7.10;4.93;;;22.40;86.80;;;;;;5113608;28;20040;-60
2021/10/31 06:33:43;;;;;;;10.57;4.82;;;22.90;86.30;;;;;;5114622;28;20497;-60
2021/10/31 06:36:11;;;;;;;7.80;5.20;;;23.20;85.70;;;;;;5114585;28;20126;-60
2021/10/31 06:38:39;;;;;;;9.77;5.72;;;23.40;85.40;;;;;;5114573;28;20438;-60
2021/10/31 06:41:09;;;;;;;9.95;6.03;;;23.40;85.40;;;;;;5114320;28;20133;-60
2021/10/31 06:43:40;;;;;;;11.07;6.45;;;23.50;85.90;;;;;;5114624;28;20073;-60
2021/10/31 06:46:11;;;;;;;12.80;6.70;;;23.40;86.20;;;;;;5113016;28;20401;-60
2021/10/31 06:48:39;;;;;;;10.13;6.25;;;23.20;86.80;;;;;;5114595;28;20040;-60
2021/10/31 06:51:07;;;;;;;9.40;5.55;;;23.00;87.40;;;;;;5113290;28;20130;-60
2021/10/31 06:53:35;;;;;;;9.13;5.75;;;22.90;87.90;;;;;;5114275;28;20513;-60
2021/10/31 06:56:03;;;;;;;10.18;6.80;;;22.80;88.60;;;;;;5114078;28;20536;-60
2021/10/31 06:58:30;;;;;;;9.32;5.90;;;22.70;89.30;;;;;;5114329;28;20126;-60
2021/10/31 07:00:58;;;;;;;9.98;6.45;;;22.70;89.60;;;;;;5114160;28;20071;-60
2021/10/31 07:03:26;;;;;;;10.18;5.45;;;22.80;89.80;;;;;;5114407;28;20546;-60
2021/10/31 07:05:53;;;;;;;10.52;5.40;;;22.90;90.00;;;;;;5112812;28;20075;-60
2021/10/31 07:08:21;;;;;;;8.27;5.93;;;23.00;90.20;;;;;;5114143;28;20054;-60
2021/10/31 07:10:49;;;;;;;9.90;5.45;;;23.10;90.20;;;;;;5112695;28;20035;-60
2021/10/31 07:13:17;;;;;;;8.18;5.75;;;23.20;90.20;;;;;;5113001;28;20082;-60
2021/10/31 07:15:45;;;;;;;6.65;4.93;;;23.40;90.20;;;;;;5113807;28;20046;-60
2021/10/31 07:18:13;;;;;;;9.07;4.70;;;23.40;90.20;;;;;;5114002;28;20039;-60
2021/10/31 07:20:41;;;;;;;7.93;5.50;;;23.50;90.30;;;;;;5114211;28;20486;-60
2021/10/31 07:23:08;;;;;;;8.60;4.45;;;23.50;90.40;;;;;;5095947;28;20053;-60
2021/10/31 07:25:36;;;;;;;9.57;4.78;;;23.50;90.50;;;;;;5113016;28;20047;-60
2021/10/31 07:28:04;;;;;;;8.27;4.93;;;23.50;90.50;;;;;;5113110;28;20153;-59
2021/10/31 07:30:32;;;;;;;5.45;3.78;;;23.40;90.50;;;;;;5113571;28;20059;-61
2021/10/31 07:33:01;;;;;;;8.48;4.13;;;23.30;90.30;;;;;;5112373;28;20036;-60
2021/10/31 07:35:30;;;;;;;7.05;4.35;;;23.20;90.10;;;;;;5112663;28;20124;-61
2021/10/31 07:37:58;;;;;;;6.00;3.78;;;23.00;90.00;;;;;;5112475;28;20044;-61
2021/10/31 07:40:26;;;;;;;4.82;3.83;;;22.90;90.30;;;;;;5095223;28;20101;-60
2021/10/31 07:42:55;;;;;;;5.70;4.15;;;22.80;89.70;;;;;;5112238;28;20493;-60
2021/10/31 07:45:37;;;;;;;5.70;3.63;;;22.70;89.60;;;;;;5112499;28;20036;-61
2021/10/31 07:48:05;;;;;;;6.00;3.53;;;22.70;88.60;;;;;;5113688;28;20042;-60
2021/10/31 07:50:36;;;;;;;5.72;4.22;;;22.70;87.50;;;;;;5113326;28;20031;-60
2021/10/31 07:53:06;;;;;;;7.53;4.75;;;22.70;86.70;;;;;;5111712;28;20117;-60
2021/10/31 07:55:36;;;;;;;5.85;4.55;;;22.70;87.10;;;;;;5078613;28;20039;-61
2021/10/31 07:58:06;;;;;;;10.80;5.00;;;22.70;87.10;;;;;;5095691;28;20069;-60
2021/10/31 08:00:35;;;;;;;8.63;4.40;;;22.40;88.30;;;;;;5113651;28;20055;-61
2021/10/31 08:03:03;;;;;;;6.25;4.70;;;22.50;88.60;;;;;;5112061;28;20043;-60
2021/10/31 08:05:32;;;;;;;8.38;5.20;;;22.50;88.70;;;;;;5113466;28;20039;-60
2021/10/31 08:08:00;;;;;;;6.18;4.38;;;22.70;88.50;;;;;;5112398;28;20036;-60
2021/10/31 08:10:28;;;;;;;7.35;4.90;;;22.70;87.60;;;;;;5113676;28;20043;-60
2021/10/31 08:12:55;;;;;;;6.20;4.30;;;22.80;86.70;;;;;;5113832;28;20486;-61
2021/10/31 08:15:23;;;;;;;8.70;5.45;;;22.80;85.70;;;;;;5112141;28;20131;-60
2021/10/31 08:17:51;;;;;;;9.50;5.18;;;22.80;85.10;;;;;;5111425;28;20050;-60
2021/10/31 08:20:19;;;;;;;7.95;5.20;;;22.80;85.30;;;;;;5113459;28;20048;-60
2021/10/31 08:22:46;;;;;;;8.25;4.85;;;22.90;85.20;;;;;;5112297;28;20512;-60
2021/10/31 08:25:14;;;;;;;13.70;5.10;;;23.00;85.10;;;;;;5098663;28;20051;-60
2021/10/31 08:27:42;;;;;;;8.20;5.30;;;23.00;84.20;;;;;;5116983;28;20046;-60
2021/10/31 08:30:10;;;;;;;7.50;4.47;;;23.10;84.10;;;;;;5115898;28;20495;-60
2021/10/31 08:32:45;;;;;;;7.68;5.32;;;23.10;84.40;;;;;;5116973;28;20366;-60
2021/10/31 08:35:13;;;;;;;6.83;4.07;;;23.20;84.20;;;;;;5117246;28;20398;-60
2021/10/31 08:37:40;;;;;;;6.47;4.53;;;22.90;82.90;;;;;;5117033;28;20035;-60
2021/10/31 08:40:09;;;;;;;6.35;4.63;;;23.00;83.40;;;;;;5116701;28;20086;-60
2021/10/31 08:42:37;;;;;;;6.85;4.50;;;23.10;83.40;;;;;;5117099;28;20398;-60
2021/10/31 08:45:08;;;;;;;8.13;4.78;;;23.10;83.40;;;;;;5115639;28;20039;-60
2021/10/31 08:47:35;;;;;;;5.45;3.80;;;23.00;83.40;;;;;;5116653;28;20043;-60
2021/10/31 08:50:04;;;;;;;8.23;4.00;;;23.00;83.60;;;;;;5115401;28;20051;-60
2021/10/31 08:52:32;;;;;;;5.55;3.85;;;22.90;83.50;;;;;;5117011;28;20130;-60
2021/10/31 08:55:00;;;;;;;6.80;4.47;;;22.70;83.50;;;;;;5115939;28;20051;-60
2021/10/31 08:57:28;;;;;;;5.75;3.97;;;23.00;83.80;;;;;;5115510;28;20050;-60
2021/10/31 08:59:56;;;;;;;6.38;3.85;;;23.20;83.20;;;;;;5116695;28;20070;-60
2021/10/31 09:02:25;;;;;;;6.78;4.22;;;23.20;82.40;;;;;;5115481;28;20192;-60
2021/10/31 09:04:53;;;;;;;6.20;3.78;;;23.30;82.50;;;;;;5115271;28;20043;-60
2021/10/31 09:07:21;;;;;;;7.40;3.55;;;23.20;82.40;;;;;;5115304;28;20032;-60
2021/10/31 09:09:48;;;;;;;5.47;3.65;;;23.40;82.60;;;;;;5116386;28;20036;-60
2021/10/31 09:12:16;;;;;;;6.07;4.00;;;23.60;82.20;;;;;;5114844;28;20520;-60
2021/10/31 09:14:44;;;;;;;6.70;4.28;;;23.70;82.60;;;;;;5116340;28;20516;-60
2021/10/31 09:17:14;;;;;;;6.72;3.80;;;23.80;82.10;;;;;;5115444;28;20055;-60
2021/10/31 09:19:42;;;;;;;6.28;3.55;;;23.90;80.90;;;;;;5115276;28;20043;-60
2021/10/31 09:22:11;;;;;;;6.45;4.30;;;24.00;81.40;;;;;;5115195;28;20043;-60
2021/10/31 09:24:39;;;;;;;6.00;4.00;;;24.00;81.50;;;;;;5116175;28;20082;-60
2021/10/31 09:27:07;;;;;;;7.63;4.30;;;24.20;79.80;;;;;;5115244;28;20057;-60
2021/10/31 09:29:36;;;;;;;4.65;3.63;;;24.20;78.60;;;;;;5116107;28;20044;-60
2021/10/31 09:32:04;;;;;;;7.28;4.40;;;24.10;78.60;;;;;;5114614;28;20040;-60
2021/10/31 09:34:32;;;;;;;5.53;4.18;;;24.00;79.10;;;;;;5114845;28;20035;-60
2021/10/31 09:37:02;;;;;;;6.57;4.60;;;23.90;80.10;;;;;;5114874;28;20068;-60
2021/10/31 09:39:29;;;;;;;6.30;4.40;;;24.00;80.00;;;;;;5115942;28;20040;-60
2021/10/31 09:41:57;;;;;;;5.13;3.83;;;23.60;79.80;;;;;;5116189;27;20060;-61
2021/10/31 09:44:31;;;;;;;7.53;4.97;;;23.10;80.10;;;;;;5115824;28;20065;-59
2021/10/31 09:46:59;;;;;;;9.05;5.25;;;22.80;81.00;;;;;;5116126;28;20032;-59
2021/10/31 09:49:26;;;;;;;7.35;4.80;;;23.00;81.20;;;;;;5114580;28;20126;-59
2021/10/31 09:51:54;;;;;;;5.88;5.10;;;23.20;81.40;;;;;;5115366;28;20092;-58
2021/10/31 09:54:22;;;;;;;7.20;3.92;;;23.40;81.30;;;;;;5114377;28;20085;-59
2021/10/31 09:56:50;;;;;;;5.30;3.85;;;23.40;80.70;;;;;;5097741;28;20044;-59
2021/10/31 09:59:24;;;;;;;7.38;4.68;;;23.20;81.30;;;;;;5114255;28;20485;-58
2021/10/31 10:02:37;;;;;;;6.35;4.07;;;23.00;82.60;;;;;;5114583;28;20074;-59
2021/10/31 10:04:52;;;;;;;7.70;4.18;;;22.80;82.30;;;;;;5111800;28;20052;-58
2021/10/31 10:07:23;;;;;;;5.75;3.80;;;22.50;83.20;;;;;;5115496;28;20089;-59
2021/10/31 10:09:53;;;;;;;7.00;4.47;;;22.30;83.90;;;;;;5097242;28;20048;-59
2021/10/31 10:12:23;;;;;;;6.45;4.47;;;22.10;84.10;;;;;;5113782;28;20130;-58
2021/10/31 10:15:07;;;;;;;9.38;4.10;;;22.00;84.50;;;;;;5113659;28;20040;-60
2021/10/31 10:17:51;;;;;;;9.18;4.43;;;21.80;85.20;;;;;;5112797;28;20044;-58
2021/10/31 10:20:20;;;;;;;7.32;4.38;;;21.70;86.70;;;;;;5114078;28;20075;-58
2021/10/31 10:22:48;;;;;;;5.10;3.40;;;21.80;86.70;;;;;;5095813;28;20104;-58
2021/10/31 10:25:16;;;;;;;7.20;4.60;;;21.90;84.30;;;;;;5112440;28;20047;-58
2021/10/31 10:27:53;;;;;;;6.32;4.00;;;22.10;83.90;;;;;;5112191;28;20051;-58
2021/10/31 10:30:24;;;;;;;8.90;3.97;;;22.40;84.20;;;;;;5113617;28;20134;-59
2021/10/31 10:32:56;;;;;;;6.32;3.70;;;22.60;82.00;;;;;;5113395;27;20044;-59
2021/10/31 10:35:27;;;;;;;6.97;4.50;;;22.90;81.30;;;;;;5078505;28;20048;-59
2021/10/31 10:37:56;;;;;;;3.63;3.00;;;23.10;80.70;;;;;;5112075;28;20043;-59
2021/10/31 10:40:27;;;;;;;5.72;4.28;;;23.20;80.60;;;;;;5078386;28;20061;-59
2021/10/31 10:42:58;;;;;;;5.20;3.47;;;23.20;80.10;;;;;;5112367;28;20051;-58
2021/10/31 10:45:28;;;;;;;25.85;6.38;;;23.30;79.60;;;;;;5111960;28;20499;-58
2021/10/31 10:47:59;;;;;;;7.60;4.88;;;23.50;79.50;;;;;;5094951;28;20039;-59
2021/10/31 10:50:36;;;;;;;6.18;4.20;;;23.60;79.50;;;;;;5078389;28;20048;-59
2021/10/31 10:53:19;;;;;;;5.00;3.80;;;23.70;79.50;;;;;;5113135;28;20092;-59
2021/10/31 10:55:48;;;;;;;4.63;4.13;;;23.70;77.20;;;;;;5111917;28;20118;-59
2021/10/31 10:58:18;;;;;;;5.18;4.13;;;23.70;76.70;;;;;;5095121;28;20476;-58
2021/10/31 11:00:51;;;;;;;7.18;3.92;;;23.80;77.40;;;;;;5094561;28;20104;-59
2021/10/31 11:03:28;;;;;;;6.43;4.13;;;23.80;77.30;;;;;;5111758;28;20047;-58
2021/10/31 11:06:05;;;;;;;9.35;4.75;;;23.80;75.50;;;;;;5111814;28;20127;-59
2021/10/31 11:08:33;;;;;;;7.90;4.32;;;23.80;76.10;;;;;;5112812;28;20088;-59
2021/10/31 11:11:10;;;;;;;5.85;4.00;;;23.80;76.60;;;;;;5094939;28;20044;-59
2021/10/31 11:13:47;;;;;;;6.25;4.00;;;23.70;76.50;;;;;;5111575;28;20073;-58
2021/10/31 11:16:15;;;;;;;4.97;3.95;;;23.80;75.90;;;;;;5112792;28;20047;-58
2021/10/31 11:18:45;;;;;;;5.57;3.95;;;23.80;75.60;;;;;;5094892;28;20428;-59
2021/10/31 11:21:13;;;;;;;4.95;3.80;;;23.70;75.30;;;;;;5112470;28;20134;-59
2021/10/31 11:23:44;;;;;;;5.68;3.95;;;23.40;75.20;;;;;;5111547;28;20047;-59
2021/10/31 11:26:15;;;;;;;6.47;4.10;;;23.20;76.00;;;;;;5112708;28;20126;-58
2021/10/31 11:28:43;;;;;;;6.97;4.05;;;22.90;77.40;;;;;;5077676;28;20048;-58
2021/10/31 11:31:11;;;;;;;6.70;4.82;;;22.70;77.80;;;;;;5094745;28;20074;-58
2021/10/31 11:33:39;;;;;;;7.45;4.47;;;22.40;78.30;;;;;;5111364;28;20036;-59
2021/10/31 11:36:08;;;;;;;6.25;4.45;;;22.10;78.30;;;;;;5077938;28;20078;-59
2021/10/31 11:38:38;;;;;;;5.50;3.72;;;21.90;78.80;;;;;;5111367;28;20047;-58
2021/10/31 11:41:09;;;;;;;9.40;4.50;;;21.90;78.10;;;;;;5094574;28;20051;-59
2021/10/31 11:43:39;;;;;;;10.38;4.57;;;21.80;83.30;;;;;;5111503;28;20519;-59
2021/10/31 11:46:07;;;;;;;10.50;5.28;;;21.70;84.70;;;;;;5112474;28;20054;-59
2021/10/31 11:48:36;;;;;;;7.18;4.22;;;21.60;85.20;;;;;;5112606;28;20477;-58
2021/10/31 11:51:13;;;;;;;5.35;4.20;;;21.60;85.30;;;;;;5112376;28;20082;-59
2021/10/31 11:53:49;;;;;;;5.85;4.15;;;21.70;84.40;;;;;;5112426;28;20040;-59
2021/10/31 11:56:17;;;;;;;6.40;4.00;;;21.80;85.10;;;;;;5094394;28;20039;-58
2021/10/31 11:58:53;;;;;;;6.90;3.60;;;21.80;85.20;;;;;;5112395;28;20456;-58
2021/10/31 12:01:30;;;;;;;6.78;3.22;;;21.70;86.40;;;;;;5116706;28;20043;-59
2021/10/31 12:03:59;;;;;;;6.30;4.10;;;21.60;86.80;;;;;;5116391;28;20039;-59
2021/10/31 12:06:27;;;;;;;5.03;3.45;;;21.60;87.20;;;;;;5116614;28;20048;-59
2021/10/31 12:08:57;;;;;;;7.93;4.25;;;21.60;87.30;;;;;;5117541;28;20040;-58
2021/10/31 12:11:47;;;;;;;8.77;6.25;;;21.60;87.00;;;;;;5116086;28;20101;-59
2021/10/31 12:14:46;;;;;;;5.63;3.97;;;21.60;87.10;;;;;;5108663;28;20044;-59
2021/10/31 12:17:14;;;;;;;7.38;4.10;;;21.70;87.10;;;;;;5117407;28;20050;-59
2021/10/31 12:19:48;;;;;;;5.80;4.60;;;21.70;87.00;;;;;;5117430;28;20482;-59
2021/10/31 12:22:35;;;;;;;8.48;4.82;;;21.70;86.90;;;;;;5116234;28;20535;-59
2021/10/31 12:25:10;;;;;;;6.25;3.85;;;21.80;87.10;;;;;;5099427;28;20055;-59
2021/10/31 12:27:45;;;;;;;6.22;4.28;;;21.70;87.30;;;;;;5116150;28;20451;-58
2021/10/31 12:30:15;;;;;;;7.65;4.20;;;21.60;87.50;;;;;;5116010;28;20044;-59
2021/10/31 12:32:44;;;;;;;6.60;3.50;;;21.50;87.70;;;;;;5079298;28;20096;-59
2021/10/31 12:35:43;;;;;;;7.10;3.90;;;21.30;88.20;;;;;;5116224;28;20082;-59
2021/10/31 12:38:17;;;;;;;6.20;4.18;;;21.10;88.70;;;;;;5117304;28;20512;-58
2021/10/31 12:41:11;;;;;;;6.70;4.18;;;20.90;88.90;;;;;;5105339;28;20048;-58
2021/10/31 12:43:45;;;;;;;7.38;4.70;;;20.80;89.20;;;;;;5115869;28;20047;-58
2021/10/31 12:46:21;;;;;;;6.35;4.15;;;20.70;89.00;;;;;;5117045;28;20050;-59
2021/10/31 12:48:51;;;;;;;5.68;4.07;;;20.60;89.50;;;;;;5099188;28;20122;-58
2021/10/31 12:52:01;;;;;;;7.32;4.50;;;20.50;89.40;;;;;;5115578;28;20101;-59
2021/10/31 12:54:35;;;;;;;4.78;3.20;;;20.50;89.70;;;;;;5115842;28;20040;-58
2021/10/31 12:57:08;;;;;;;4.60;3.47;;;20.50;90.00;;;;;;5116952;28;20044;-58
2021/10/31 12:59:47;;;;;;;7.80;4.00;;;20.60;89.70;;;;;;5116792;28;20043;-59
2021/10/31 13:02:16;;;;;;;6.93;4.30;;;20.60;89.20;;;;;;5116756;28;20507;-59
2021/10/31 13:05:06;;;;;;;5.68;3.88;;;20.60;89.60;;;;;;5116516;28;20039;-58
2021/10/31 13:07:43;;;;;;;8.43;4.57;;;20.60;89.40;;;;;;5098583;28;20059;-59